Time;durP1;ratioP1;P1;durP2;ratioP2;P2;SDS_P1;SDS_P2;PMS_P1;PMS_P2;Temp;Humidity;BMP_temperature;BMP_pressure;BME280_temperature;BME280_humidity;BME280_pressure;Samples;Min_cycle;Max_cycle;Signal;HPM_P1;HPM_P2
2022/09/03 00:00:04;;;;;;;7.20;5.47;;;;;;;17.73;73.54;94620.38;4205497;28;20052;-64
2022/09/03 00:02:21;;;;;;;9.77;6.32;;;;;;;17.77;73.85;94626.09;4199655;28;20052;-63
2022/09/03 00:04:35;;;;;;;8.82;5.90;;;;;;;17.81;73.61;94630.75;4211928;28;20683;-64
2022/09/03 00:06:45;;;;;;;8.38;6.10;;;;;;;17.77;73.47;94626.88;4212720;28;20055;-65
2022/09/03 00:09:07;;;;;;;7.82;6.07;;;;;;;17.80;73.60;94626.47;4212785;28;20101;-63
2022/09/03 00:11:18;;;;;;;10.05;5.60;;;;;;;17.81;73.47;94627.31;4212804;28;20512;-65
2022/09/03 00:13:38;;;;;;;7.90;5.93;;;;;;;17.86;73.50;94634.66;4212641;28;20068;-65
2022/09/03 00:15:39;;;;;;;7.57;6.07;;;;;;;17.87;73.34;94631.78;4211020;28;20129;-66
2022/09/03 00:17:52;;;;;;;7.95;6.10;;;;;;;17.91;73.00;94629.56;4211199;28;20048;-65
2022/09/03 00:19:57;;;;;;;9.57;6.07;;;;;;;17.89;73.11;94629.75;4213309;28;20044;-65
2022/09/03 00:22:02;;;;;;;7.78;6.00;;;;;;;17.91;73.00;94622.41;4211959;28;20048;-64
2022/09/03 00:24:07;;;;;;;8.05;6.13;;;;;;;17.87;72.64;94623.84;4210926;28;20533;-65
2022/09/03 00:26:21;;;;;;;7.95;5.65;;;;;;;17.88;73.09;94622.03;4211467;28;20044;-65
2022/09/03 00:28:28;;;;;;;11.35;6.30;;;;;;;17.92;72.72;94621.41;4217206;28;20096;-64
2022/09/03 00:30:32;;;;;;;11.18;6.35;;;;;;;17.90;72.61;94614.69;4213863;28;20051;-65
2022/09/03 00:32:51;;;;;;;9.02;6.13;;;;;;;17.93;73.04;94616.91;4208949;28;20491;-65
2022/09/03 00:34:57;;;;;;;7.28;6.38;;;;;;;17.64;73.29;94621.59;4206880;28;20512;-64
2022/09/03 00:36:59;;;;;;;7.60;6.25;;;;;;;16.96;75.81;94624.38;4204312;28;20143;-65
2022/09/03 00:39:02;;;;;;;8.98;6.05;;;;;;;16.50;77.77;94625.03;4199625;28;20139;-62
2022/09/03 00:41:05;;;;;;;9.98;7.07;;;;;;;16.36;78.81;94617.03;4208925;28;20098;-64
2022/09/03 00:43:13;;;;;;;8.63;7.38;;;;;;;16.31;78.94;94624.72;4202623;28;20052;-65
2022/09/03 00:45:30;;;;;;;10.38;6.97;;;;;;;16.45;79.26;94616.84;4212388;28;20526;-65
2022/09/03 00:47:50;;;;;;;10.05;7.53;;;;;;;16.42;79.30;94619.91;4199569;28;20528;-65
2022/09/03 00:50:01;;;;;;;9.82;7.47;;;;;;;16.59;78.76;94626.47;4205378;28;20064;-65
2022/09/03 00:52:17;;;;;;;13.90;7.38;;;;;;;16.80;77.81;94617.63;4209912;28;20076;-65
2022/09/03 00:54:39;;;;;;;9.32;8.00;;;;;;;17.02;77.23;94623.59;4208899;28;20132;-65
2022/09/03 00:57:24;;;;;;;10.18;7.32;;;;;;;17.23;76.25;94616.47;4203952;28;20052;-63
2022/09/03 00:59:31;;;;;;;12.30;7.82;;;;;;;17.31;75.53;94621.56;4187007;28;20051;-63
2022/09/03 01:01:40;;;;;;;10.88;7.95;;;;;;;17.20;75.67;94626.44;4201168;28;20568;-64
2022/09/03 01:04:08;;;;;;;8.65;6.20;;;;;;;17.24;74.84;94626.06;4202723;28;20102;-59
2022/09/03 01:06:19;;;;;;;7.93;6.50;;;;;;;17.16;74.68;94629.69;4202281;28;20052;-58
2022/09/03 01:08:34;;;;;;;8.40;6.13;;;;;;;17.18;74.38;94625.03;4207056;28;20044;-59
2022/09/03 01:10:56;;;;;;;10.63;6.50;;;;;;;17.15;74.12;94634.19;4212306;28;20108;-59
2022/09/03 01:13:12;;;;;;;8.25;6.38;;;;;;;17.06;74.31;94616.06;4212072;28;20047;-58
2022/09/03 01:15:28;;;;;;;7.90;6.20;;;;;;;17.06;74.46;94630.09;4208666;28;20149;-59
2022/09/03 01:17:53;;;;;;;7.57;6.18;;;;;;;17.06;74.36;94624.00;4211107;28;20140;-60
2022/09/03 01:20:08;;;;;;;7.28;6.25;;;;;;;17.06;74.59;94624.00;4212183;28;20051;-58
2022/09/03 01:22:28;;;;;;;9.40;6.75;;;;;;;17.11;74.34;94622.38;4210480;28;20082;-58
2022/09/03 01:24:52;;;;;;;8.73;6.85;;;;;;;17.13;74.43;94627.47;4205712;28;20051;-58
2022/09/03 01:26:53;;;;;;;7.28;6.38;;;;;;;17.11;74.08;94637.44;4202729;28;20047;-58
2022/09/03 01:29:11;;;;;;;9.02;7.20;;;;;;;17.12;74.27;94631.97;4209247;28;20094;-60
2022/09/03 01:31:50;;;;;;;8.77;6.60;;;;;;;16.99;74.55;94640.69;4207006;28;20055;-59
2022/09/03 01:34:22;;;;;;;9.25;6.78;;;;;;;17.08;74.73;94649.25;4178616;28;20040;-58
2022/09/03 01:37:01;;;;;;;10.95;7.57;;;;;;;17.07;74.74;94655.53;4215516;28;20130;-62
2022/09/03 01:39:22;;;;;;;7.78;6.35;;;;;;;17.09;74.53;94655.34;4205245;28;20048;-65
2022/09/03 01:44:15;;;;;;;8.63;6.57;;;;;;;17.03;74.57;94659.59;4212023;28;20051;-64
2022/09/03 01:46:39;;;;;;;9.95;6.75;;;;;;;17.11;74.53;94654.13;4203279;28;20139;-66
2022/09/03 01:48:48;;;;;;;10.30;7.10;;;;;;;17.14;74.51;94648.44;4193186;28;20049;-66
2022/09/03 01:50:58;;;;;;;8.27;6.82;;;;;;;17.09;74.34;94639.47;4208409;28;20056;-60
2022/09/03 01:53:09;;;;;;;9.65;7.22;;;;;;;17.11;74.64;94642.75;4209779;28;20058;-59
2022/09/03 01:55:28;;;;;;;9.55;6.80;;;;;;;17.13;74.49;94638.06;4210293;28;20056;-58
2022/09/03 01:57:55;;;;;;;9.25;7.20;;;;;;;17.12;74.27;94641.72;4196807;28;20046;-58
2022/09/03 02:00:07;;;;;;;8.30;6.32;;;;;;;17.15;74.41;94638.69;4211334;28;20088;-60
2022/09/03 02:02:11;;;;;;;9.13;6.70;;;;;;;17.16;74.32;94638.47;4210489;28;20052;-58
2022/09/03 02:04:19;;;;;;;10.00;7.10;;;;;;;17.15;74.22;94636.84;4210269;28;20088;-58
2022/09/03 02:06:21;;;;;;;8.48;6.55;;;;;;;17.20;74.28;94634.38;4197245;28;20448;-58
2022/09/03 02:08:23;;;;;;;9.85;6.50;;;;;;;17.21;74.12;94637.88;4210754;28;20187;-60
2022/09/03 02:10:32;;;;;;;10.50;7.28;;;;;;;17.23;74.22;94629.72;4202508;28;20048;-60
2022/09/03 02:12:37;;;;;;;7.70;6.50;;;;;;;17.24;73.96;94647.25;4206694;28;20052;-58
2022/09/03 02:14:39;;;;;;;8.10;6.40;;;;;;;17.16;73.98;94651.72;4198277;28;20082;-60
2022/09/03 02:16:43;;;;;;;9.18;6.78;;;;;;;17.08;73.70;94653.72;4209737;28;20082;-59
2022/09/03 02:18:47;;;;;;;8.93;6.75;;;;;;;17.07;73.91;94655.53;4194902;28;20048;-58
2022/09/03 02:20:52;;;;;;;7.75;6.35;;;;;;;17.09;73.96;94648.22;4195134;28;20056;-58
2022/09/03 02:22:55;;;;;;;11.10;7.28;;;;;;;17.16;73.90;94645.59;4194338;28;20446;-59
2022/09/03 02:24:57;;;;;;;9.27;7.05;;;;;;;17.16;73.56;94648.22;4204368;28;20473;-65
2022/09/03 02:26:58;;;;;;;7.97;6.43;;;;;;;17.15;73.88;94649.25;4198923;28;20086;-65
2022/09/03 02:29:01;;;;;;;10.27;7.22;;;;;;;17.13;73.91;94648.66;4195647;28;20056;-65
2022/09/03 02:31:03;;;;;;;11.77;6.70;;;;;;;17.20;73.67;94647.63;4204890;28;20205;-66
2022/09/03 02:33:05;;;;;;;7.18;6.47;;;;;;;17.18;73.22;94654.94;4211945;28;20131;-66
2022/09/03 02:35:08;;;;;;;8.57;6.93;;;;;;;17.25;73.39;94659.44;4208735;28;20066;-65
2022/09/03 02:37:17;;;;;;;8.98;6.88;;;;;;;17.29;73.28;94656.19;4206670;28;20060;-64
2022/09/03 02:39:19;;;;;;;8.85;6.80;;;;;;;17.35;73.47;94654.59;4210550;28;20052;-64
2022/09/03 02:41:21;;;;;;;8.40;7.00;;;;;;;17.31;73.23;94659.44;4209948;28;20102;-64
2022/09/03 02:43:37;;;;;;;10.07;6.25;;;;;;;17.15;73.47;94660.66;4209890;28;20047;-64
2022/09/03 02:45:47;;;;;;;12.80;7.38;;;;;;;17.16;73.82;94657.00;4210661;28;20052;-65
2022/09/03 02:47:51;;;;;;;9.20;7.32;;;;;;;17.12;73.60;94665.53;4210386;28;20052;-66
2022/09/03 02:49:53;;;;;;;8.63;7.18;;;;;;;17.11;73.58;94658.63;4210933;28;20052;-66
2022/09/03 02:52:00;;;;;;;9.98;7.10;;;;;;;17.13;73.46;94664.53;4210415;28;20100;-65
2022/09/03 02:54:03;;;;;;;9.98;7.40;;;;;;;17.06;73.46;94669.81;4210911;28;20109;-65
2022/09/03 02:56:05;;;;;;;8.32;6.90;;;;;;;16.99;74.06;94671.59;4203022;28;20481;-63
2022/09/03 02:58:07;;;;;;;9.40;7.43;;;;;;;16.93;74.28;94670.59;4207882;28;20055;-64
2022/09/03 03:00:09;;;;;;;9.70;7.80;;;;;;;17.01;74.10;94674.06;4199943;28;20484;-63
2022/09/03 03:02:12;;;;;;;9.43;7.35;;;;;;;17.03;73.99;94656.16;4210340;28;20721;-64
2022/09/03 03:04:14;;;;;;;9.02;7.47;;;;;;;17.11;73.98;94662.06;4214264;28;20062;-65
2022/09/03 03:06:19;;;;;;;9.07;7.55;;;;;;;17.15;73.68;94665.16;4214156;28;20052;-65
2022/09/03 03:08:23;;;;;;;8.77;6.90;;;;;;;17.19;73.18;94664.53;4213521;28;20043;-64
2022/09/03 03:10:25;;;;;;;11.25;7.70;;;;;;;17.04;73.92;94663.91;4214155;28;20056;-63
2022/09/03 03:12:30;;;;;;;11.55;7.43;;;;;;;16.66;75.28;94666.19;4214210;28;20056;-64
2022/09/03 03:14:31;;;;;;;9.45;7.40;;;;;;;16.34;76.45;94658.69;4200819;28;20078;-65
2022/09/03 03:16:33;;;;;;;14.18;8.43;;;;;;;15.92;78.40;94659.69;4213378;28;20056;-67
2022/09/03 03:18:35;;;;;;;9.95;7.93;;;;;;;15.68;79.50;94663.50;4214009;28;20628;-64
2022/09/03 03:20:37;;;;;;;10.73;8.25;;;;;;;15.55;80.26;94659.78;4213820;28;20059;-65
2022/09/03 03:22:39;;;;;;;12.32;8.57;;;;;;;15.67;80.49;94651.34;4212856;28;20055;-64
2022/09/03 03:24:41;;;;;;;11.00;8.60;;;;;;;15.68;80.40;94651.16;4213139;28;20105;-65
2022/09/03 03:26:42;;;;;;;12.95;9.30;;;;;;;15.67;80.33;94656.63;4213249;28;20415;-65
2022/09/03 03:28:47;;;;;;;11.23;8.27;;;;;;;15.61;80.46;94658.19;4212745;28;20052;-65
2022/09/03 03:30:49;;;;;;;15.32;8.90;;;;;;;15.61;80.67;94654.72;4212044;28;20048;-66
2022/09/03 03:32:55;;;;;;;13.13;9.27;;;;;;;15.67;80.70;94665.34;4210269;28;20048;-65
2022/09/03 03:34:56;;;;;;;12.77;7.68;;;;;;;15.60;80.43;94667.13;4207470;28;20048;-65
2022/09/03 03:36:58;;;;;;;11.07;8.35;;;;;;;15.75;80.73;94662.59;4196563;28;20105;-65
2022/09/03 03:39:01;;;;;;;12.85;8.43;;;;;;;15.93;79.96;94658.66;4197708;28;20040;-65
2022/09/03 03:41:07;;;;;;;11.90;8.73;;;;;;;15.64;80.41;94664.91;4209845;28;20048;-65
2022/09/03 03:43:08;;;;;;;11.50;8.00;;;;;;;15.70;80.33;94657.06;4213505;28;20055;-67
2022/09/03 03:45:10;;;;;;;12.00;8.50;;;;;;;15.92;79.79;94662.31;4213186;28;20116;-65
2022/09/03 03:47:12;;;;;;;11.15;8.10;;;;;;;15.92;79.49;94664.97;4197140;28;20500;-65
2022/09/03 03:49:13;;;;;;;12.65;8.75;;;;;;;16.02;79.40;94667.25;4204223;28;20135;-64
2022/09/03 03:51:15;;;;;;;11.55;9.38;;;;;;;16.06;78.85;94660.56;4203960;28;20059;-64
2022/09/03 03:53:17;;;;;;;13.80;8.45;;;;;;;15.94;79.04;94661.13;4209947;28;20117;-65
2022/09/03 03:55:19;;;;;;;11.85;8.23;;;;;;;15.90;79.42;94661.69;4201205;28;20473;-66
2022/09/03 03:57:21;;;;;;;12.63;8.77;;;;;;;15.94;79.14;94666.41;4213632;28;20082;-65
2022/09/03 03:59:23;;;;;;;12.85;7.90;;;;;;;16.02;79.19;94672.53;4202859;28;20048;-64
2022/09/03 04:01:26;;;;;;;9.38;7.78;;;;;;;16.00;78.63;94674.56;4209914;28;20044;-64
2022/09/03 04:03:28;;;;;;;11.87;8.30;;;;;;;16.11;78.49;94674.84;4197615;28;20052;-63
2022/09/03 04:05:29;;;;;;;11.07;7.93;;;;;;;16.22;77.98;94673.50;4197808;28;20053;-66
2022/09/03 04:07:34;;;;;;;10.80;7.95;;;;;;;16.26;77.51;94663.31;4208392;28;20622;-67
2022/09/03 04:09:36;;;;;;;12.32;8.10;;;;;;;16.35;77.51;94664.81;4199483;28;20497;-64
2022/09/03 04:11:38;;;;;;;9.45;8.20;;;;;;;16.50;77.12;94667.34;4196296;28;20048;-65
2022/09/03 04:13:41;;;;;;;10.45;7.80;;;;;;;16.60;76.21;94657.19;4205578;28;20492;-66
2022/09/03 04:15:43;;;;;;;9.20;7.63;;;;;;;16.71;75.89;94659.28;4199865;28;20106;-65
2022/09/03 04:17:45;;;;;;;9.57;8.05;;;;;;;16.81;75.65;94658.13;4209608;28;20048;-64
2022/09/03 04:19:47;;;;;;;11.48;8.52;;;;;;;16.91;75.37;94658.56;4197110;28;20044;-65
2022/09/03 04:21:49;;;;;;;10.43;7.30;;;;;;;16.99;74.84;94656.56;4196710;28;20753;-65
2022/09/03 04:23:51;;;;;;;11.00;7.38;;;;;;;16.92;74.55;94660.19;4196541;28;20425;-65
2022/09/03 04:25:53;;;;;;;9.68;7.38;;;;;;;16.85;74.83;94668.09;4196484;28;20048;-66
2022/09/03 04:27:55;;;;;;;10.15;8.05;;;;;;;16.86;74.85;94666.28;4203118;28;20047;-65
2022/09/03 04:29:57;;;;;;;12.95;7.43;;;;;;;16.86;74.87;94668.91;4212712;28;20527;-67
2022/09/03 04:34:18;;;;;;;9.30;6.80;;;;;;;16.78;74.79;94678.63;4213176;27;20466;-65
2022/09/03 04:36:22;;;;;;;9.88;7.78;;;;;;;16.82;75.08;94680.91;4213009;28;20040;-65
2022/09/03 04:38:24;;;;;;;14.85;8.45;;;;;;;16.87;74.96;94681.97;4203452;28;20053;-65
2022/09/03 04:40:26;;;;;;;11.20;7.78;;;;;;;16.95;74.91;94689.72;4195930;28;20551;-65
2022/09/03 04:42:27;;;;;;;10.73;7.47;;;;;;;16.99;74.47;94688.31;4201296;28;20056;-65
2022/09/03 04:44:29;;;;;;;10.60;7.20;;;;;;;17.04;74.30;94695.66;4204315;28;20090;-66
2022/09/03 04:46:33;;;;;;;11.23;7.20;;;;;;;16.98;74.22;94697.25;4195375;28;20876;-68
2022/09/03 04:48:36;;;;;;;14.30;7.70;;;;;;;16.95;74.45;94699.47;4209280;28;20109;-66
2022/09/03 04:50:38;;;;;;;9.40;7.27;;;;;;;16.89;74.34;94702.94;4202265;28;20484;-67
2022/09/03 04:52:40;;;;;;;9.52;7.32;;;;;;;16.93;74.44;94710.28;4211645;28;20148;-67
2022/09/03 04:54:42;;;;;;;10.73;7.93;;;;;;;16.76;75.18;94717.69;4212787;28;20059;-64
2022/09/03 04:56:43;;;;;;;8.73;7.28;;;;;;;16.74;74.22;94717.09;4199280;28;20117;-63
2022/09/03 04:58:46;;;;;;;10.75;7.97;;;;;;;16.65;74.93;94718.28;4212744;28;20548;-57
2022/09/03 05:00:51;;;;;;;7.50;6.38;;;;;;;16.65;74.83;94720.06;4210737;28;20114;-60
2022/09/03 05:02:53;;;;;;;8.30;6.63;;;;;;;16.63;74.45;94722.94;4200914;28;20084;-58
2022/09/03 05:04:55;;;;;;;8.32;6.93;;;;;;;16.57;74.79;94729.81;4212581;28;20454;-62
2022/09/03 05:06:57;;;;;;;9.10;7.25;;;;;;;16.57;74.84;94726.34;4211562;28;20044;-59
2022/09/03 05:08:59;;;;;;;10.23;7.25;;;;;;;16.63;74.76;94724.75;4211866;28;20048;-59
2022/09/03 05:11:03;;;;;;;13.00;7.32;;;;;;;16.67;75.21;94725.97;4211721;28;20055;-59
2022/09/03 05:13:04;;;;;;;9.50;7.20;;;;;;;16.61;75.05;94727.59;4212060;28;20056;-59
2022/09/03 05:15:07;;;;;;;9.80;7.03;;;;;;;16.66;75.12;94727.81;4210209;28;20105;-61
2022/09/03 05:17:08;;;;;;;11.00;7.80;;;;;;;16.84;74.89;94721.22;4211303;28;20055;-59
2022/09/03 05:19:11;;;;;;;9.60;8.02;;;;;;;16.87;74.35;94723.47;4211553;28;20105;-58
2022/09/03 05:21:15;;;;;;;11.20;7.60;;;;;;;16.99;74.28;94725.38;4211160;28;20052;-60
2022/09/03 05:23:18;;;;;;;9.75;7.60;;;;;;;16.98;74.35;94723.72;4209270;28;20047;-59
2022/09/03 05:25:20;;;;;;;8.55;7.22;;;;;;;17.04;73.97;94722.13;4211821;28;20052;-60
2022/09/03 05:27:22;;;;;;;8.57;7.40;;;;;;;16.98;74.53;94729.00;4209732;28;20045;-61
2022/09/03 05:29:24;;;;;;;8.68;6.35;;;;;;;16.93;74.49;94735.94;4210491;28;20044;-59
2022/09/03 05:31:28;;;;;;;9.43;7.75;;;;;;;16.90;74.73;94741.59;4209781;28;20105;-60
2022/09/03 05:33:34;;;;;;;8.43;7.07;;;;;;;16.89;74.34;94730.22;4209339;28;20044;-59
2022/09/03 05:35:37;;;;;;;8.85;6.50;;;;;;;17.02;74.25;94729.44;4221194;28;20222;-59
2022/09/03 05:37:39;;;;;;;7.30;6.38;;;;;;;16.87;73.94;94736.72;4211688;28;20056;-59
2022/09/03 05:39:40;;;;;;;8.25;6.63;;;;;;;16.70;74.25;94739.66;4209871;28;20040;-66
2022/09/03 05:41:42;;;;;;;8.77;6.78;;;;;;;16.61;75.11;94735.53;4195090;28;20095;-65
2022/09/03 05:43:44;;;;;;;9.23;6.88;;;;;;;16.58;75.04;94734.09;4195006;28;20056;-66
2022/09/03 05:45:46;;;;;;;10.02;6.88;;;;;;;16.23;76.08;94746.47;4194979;28;20090;-67
2022/09/03 05:47:48;;;;;;;7.70;6.13;;;;;;;16.34;76.00;94735.34;4203824;28;20052;-68
2022/09/03 05:49:49;;;;;;;9.82;6.53;;;;;;;16.36;75.58;94741.28;4199059;28;20048;-64
2022/09/03 05:51:51;;;;;;;8.25;7.00;;;;;;;16.59;75.28;94737.56;4197025;28;20055;-59
2022/09/03 05:53:54;;;;;;;8.80;5.90;;;;;;;16.79;74.55;94738.47;4210134;28;20044;-58
2022/09/03 05:55:57;;;;;;;8.43;7.03;;;;;;;16.86;73.75;94743.00;4201485;28;20045;-59
2022/09/03 05:57:59;;;;;;;6.97;6.10;;;;;;;17.01;73.64;94743.66;4208087;28;20048;-59
2022/09/03 06:00:01;;;;;;;9.25;7.28;;;;;;;17.11;73.66;94749.41;4211386;28;20683;-57
2022/09/03 06:02:04;;;;;;;10.07;6.90;;;;;;;16.94;73.37;94745.50;4210740;28;20048;-59
2022/09/03 06:04:08;;;;;;;6.68;5.72;;;;;;;16.99;72.84;94754.47;4211522;28;20048;-61
2022/09/03 06:06:12;;;;;;;6.68;5.70;;;;;;;16.98;72.15;94744.06;4208922;28;20515;-60
2022/09/03 06:08:14;;;;;;;7.22;6.18;;;;;;;17.07;72.36;94750.81;4194151;28;20102;-60
2022/09/03 06:10:16;;;;;;;7.47;5.88;;;;;;;17.10;71.77;94754.91;4203288;28;20109;-61
2022/09/03 06:12:17;;;;;;;9.52;6.05;;;;;;;17.29;71.56;94753.34;4211279;28;20376;-59
2022/09/03 06:14:19;;;;;;;9.05;6.28;;;;;;;17.18;71.76;94760.84;4209205;28;20052;-60
2022/09/03 06:16:21;;;;;;;7.38;6.55;;;;;;;17.15;71.72;94757.78;4193690;28;20447;-61
2022/09/03 06:18:32;;;;;;;7.10;6.07;;;;;;;16.70;73.24;94746.78;4203727;28;20051;-60
2022/09/03 06:20:34;;;;;;;9.20;7.00;;;;;;;16.68;73.83;94746.16;4197697;28;20127;-60
2022/09/03 06:22:37;;;;;;;10.57;6.72;;;;;;;16.85;73.73;94752.78;4206140;28;20508;-60
2022/09/03 06:24:39;;;;;;;9.85;7.38;;;;;;;17.12;72.75;94748.41;4201716;28;20097;-60
2022/09/03 06:26:41;;;;;;;9.63;7.45;;;;;;;17.13;72.68;94752.69;4210967;28;20048;-58
2022/09/03 06:28:44;;;;;;;8.27;7.33;;;;;;;17.23;72.65;94749.69;4210345;28;20052;-58
2022/09/03 06:30:46;;;;;;;7.78;6.55;;;;;;;17.05;71.77;94750.22;4210611;28;20077;-61
2022/09/03 06:32:49;;;;;;;9.50;7.18;;;;;;;17.06;72.05;94756.34;4209879;28;20056;-59
2022/09/03 06:34:51;;;;;;;10.40;6.75;;;;;;;17.06;72.35;94754.50;4213135;28;20060;-59
2022/09/03 06:36:53;;;;;;;11.10;7.57;;;;;;;17.26;72.31;94759.06;4217332;28;20154;-61
2022/09/03 06:38:56;;;;;;;8.23;7.20;;;;;;;17.46;71.27;94751.16;4211113;28;20520;-65
2022/09/03 06:41:03;;;;;;;8.05;6.43;;;;;;;16.99;73.00;94757.13;4204684;28;20056;-66
2022/09/03 06:43:04;;;;;;;8.63;7.25;;;;;;;16.97;72.96;94760.97;4204987;28;20059;-65
2022/09/03 06:45:07;;;;;;;9.63;7.60;;;;;;;16.94;73.17;94756.06;4210572;28;20048;-65
2022/09/03 06:47:12;;;;;;;7.93;6.38;;;;;;;16.85;72.55;94762.53;4206282;28;20072;-65
2022/09/03 06:49:14;;;;;;;8.23;6.22;;;;;;;16.64;73.39;94761.59;4202406;28;20056;-66
2022/09/03 06:51:24;;;;;;;8.20;6.60;;;;;;;16.59;74.10;94756.06;4210078;28;20048;-59
2022/09/03 06:53:28;;;;;;;7.30;6.53;;;;;;;16.79;73.05;94759.63;4209684;28;20129;-58
2022/09/03 06:55:32;;;;;;;7.72;6.85;;;;;;;16.90;72.27;94758.28;4210536;28;20064;-60
2022/09/03 06:57:34;;;;;;;9.65;6.50;;;;;;;16.89;73.17;94761.16;4210825;28;20620;-60
2022/09/03 06:59:35;;;;;;;9.60;7.00;;;;;;;17.12;72.76;94764.31;4210888;28;20048;-59
2022/09/03 07:01:39;;;;;;;8.98;6.88;;;;;;;17.34;72.08;94766.81;4207055;28;20041;-62
2022/09/03 07:03:47;;;;;;;10.75;7.32;;;;;;;17.42;71.46;94771.91;4194572;28;20040;-59
2022/09/03 07:05:48;;;;;;;;;;;;;;;17.24;71.88;94767.19;4211586;28;20428;-59
2022/09/03 07:07:50;;;;;;;9.10;7.32;;;;;;;17.20;72.21;94773.88;4209486;28;19920;-60
2022/09/03 07:09:52;;;;;;;7.85;7.00;;;;;;;17.45;71.71;94773.38;4208795;28;20057;-59
2022/09/03 07:11:54;;;;;;;9.18;6.93;;;;;;;17.40;71.41;94771.28;4210684;28;20048;-61
2022/09/03 07:13:56;;;;;;;9.18;7.50;;;;;;;17.34;71.92;94774.75;4211053;28;20060;-59
2022/09/03 07:16:03;;;;;;;9.40;7.30;;;;;;;17.63;71.18;94772.78;4208873;28;20480;-59
2022/09/03 07:18:06;;;;;;;7.10;6.22;;;;;;;17.73;69.95;94773.22;4208866;28;20081;-59
2022/09/03 07:20:08;;;;;;;8.77;6.72;;;;;;;17.86;69.72;94773.28;4209512;28;20051;-61
2022/09/03 07:22:10;;;;;;;9.73;7.63;;;;;;;18.06;69.36;94778.56;4208839;28;20051;-60
2022/09/03 07:24:12;;;;;;;8.18;6.90;;;;;;;18.20;68.43;94777.56;4207481;28;20052;-59
2022/09/03 07:26:16;;;;;;;7.95;6.28;;;;;;;18.29;67.40;94783.47;4210629;28;20048;-60
2022/09/03 07:28:18;;;;;;;7.35;5.65;;;;;;;18.53;66.80;94786.53;4209270;28;20052;-60
2022/09/03 07:30:19;;;;;;;9.25;6.47;;;;;;;18.52;66.50;94787.53;4209363;28;20052;-60
2022/09/03 07:32:21;;;;;;;6.85;5.85;;;;;;;17.93;67.98;94789.19;4207446;28;20045;-60
2022/09/03 07:34:25;;;;;;;9.02;5.65;;;;;;;18.12;68.09;94788.38;4209623;28;20543;-59
2022/09/03 07:36:28;;;;;;;6.70;5.72;;;;;;;18.35;67.48;94798.59;4205491;28;20063;-59
2022/09/03 07:38:36;;;;;;;12.18;7.40;;;;;;;18.47;67.31;94790.00;4200725;28;20188;-61
2022/09/03 07:40:40;;;;;;;8.15;6.80;;;;;;;18.55;67.17;94792.44;4203442;28;20060;-64
2022/09/03 07:42:42;;;;;;;5.85;5.25;;;;;;;18.59;66.33;94793.66;4199954;28;20408;-66
2022/09/03 07:44:44;;;;;;;7.13;5.90;;;;;;;18.56;66.66;94794.06;4209832;28;20558;-66
2022/09/03 07:46:46;;;;;;;7.40;5.70;;;;;;;18.65;66.43;94800.81;4211187;28;20056;-68
2022/09/03 07:48:50;;;;;;;7.33;5.60;;;;;;;18.68;66.42;94795.06;4212360;28;20127;-68
2022/09/03 07:50:58;;;;;;;7.60;6.60;;;;;;;18.69;66.12;94793.22;4212464;28;20491;-68
2022/09/03 07:53:00;;;;;;;7.63;6.10;;;;;;;18.73;65.88;94799.75;4207938;28;20112;-66
2022/09/03 07:55:03;;;;;;;7.57;5.53;;;;;;;18.79;65.89;94794.47;4212567;28;20459;-66
2022/09/03 07:57:06;;;;;;;7.88;6.10;;;;;;;18.95;65.77;94803.84;4213249;28;20396;-65
2022/09/03 07:59:08;;;;;;;7.55;5.35;;;;;;;19.28;64.70;94791.47;4213564;28;20068;-66
2022/09/03 08:01:15;;;;;;;9.27;5.63;;;;;;;19.48;63.91;94802.00;4211368;28;20533;-60
2022/09/03 08:03:17;;;;;;;5.57;4.97;;;;;;;19.47;63.62;94803.00;4213202;28;20377;-58
2022/09/03 08:05:20;;;;;;;7.38;5.47;;;;;;;19.56;63.68;94796.44;4213215;28;20477;-59
2022/09/03 08:07:21;;;;;;;8.15;5.55;;;;;;;19.57;63.70;94801.53;4212394;28;20109;-60
2022/09/03 08:09:24;;;;;;;10.75;6.07;;;;;;;19.57;63.47;94800.72;4213008;28;20079;-62
2022/09/03 08:11:27;;;;;;;9.05;6.18;;;;;;;19.73;63.41;94804.78;4208329;28;20054;-60
2022/09/03 08:13:28;;;;;;;6.10;5.47;;;;;;;19.15;64.73;94809.06;4205293;28;20048;-58
2022/09/03 08:15:31;;;;;;;7.05;5.28;;;;;;;18.79;65.89;94804.28;4212370;28;20052;-60
2022/09/03 08:17:33;;;;;;;7.23;5.50;;;;;;;18.57;66.95;94807.13;4212462;28;20056;-61
2022/09/03 08:19:37;;;;;;;7.47;5.10;;;;;;;18.90;65.80;94803.63;4213299;28;20048;-60
2022/09/03 08:21:42;;;;;;;6.63;4.85;;;;;;;19.15;65.18;94798.47;4211932;28;20047;-63
2022/09/03 08:23:46;;;;;;;6.15;4.32;;;;;;;19.41;64.26;94800.19;4199230;28;20061;-61
2022/09/03 08:25:48;;;;;;;6.22;4.78;;;;;;;19.63;63.56;94802.53;4200352;28;20048;-59
2022/09/03 08:27:50;;;;;;;7.90;5.25;;;;;;;19.68;63.50;94799.22;4212710;28;20108;-61
2022/09/03 08:29:52;;;;;;;7.13;6.00;;;;;;;19.57;64.01;94795.41;4212735;28;20056;-61
2022/09/03 08:31:54;;;;;;;6.68;5.78;;;;;;;19.64;63.53;94802.31;4208960;28;20055;-60
2022/09/03 08:33:58;;;;;;;6.25;5.18;;;;;;;19.76;63.30;94804.34;4213113;28;20101;-60
2022/09/03 08:35:59;;;;;;;5.93;5.28;;;;;;;19.99;62.20;94796.63;4215072;28;20051;-63
2022/09/03 08:38:04;;;;;;;5.55;4.93;;;;;;;20.23;61.41;94800.34;4202368;28;20106;-60
2022/09/03 08:40:11;;;;;;;7.10;5.60;;;;;;;19.92;61.84;94798.53;4197613;28;20044;-63
2022/09/03 08:42:49;;;;;;;5.78;5.15;;;;;;;19.44;63.61;94791.81;4199573;28;20595;-59
2022/09/03 08:44:57;;;;;;;8.65;5.20;;;;;;;19.40;64.16;94789.75;4194700;28;20110;-59
2022/09/03 08:47:08;;;;;;;8.45;5.85;;;;;;;19.15;64.39;94803.75;4208954;28;20496;-59
2022/09/03 08:49:14;;;;;;;7.95;5.47;;;;;;;19.11;64.80;94796.44;4196325;28;20347;-59
2022/09/03 08:51:28;;;;;;;6.30;5.60;;;;;;;18.99;65.07;94797.09;4207598;28;20089;-59
2022/09/03 08:53:45;;;;;;;7.55;5.20;;;;;;;19.21;64.62;94792.31;4196776;28;20404;-59
2022/09/03 08:55:54;;;;;;;7.28;6.55;;;;;;;19.14;64.96;94801.31;4194666;28;20044;-59
2022/09/03 08:58:05;;;;;;;6.45;5.30;;;;;;;18.52;65.95;94801.63;4209265;28;20051;-59
2022/09/03 09:00:08;;;;;;;5.80;5.20;;;;;;;18.60;66.44;94800.59;4215900;28;20043;-60
2022/09/03 09:02:26;;;;;;;6.65;5.75;;;;;;;18.83;65.35;94798.34;4205554;28;20106;-61
2022/09/03 09:04:59;;;;;;;7.30;4.93;;;;;;;18.99;64.60;94799.75;4208334;28;20140;-61
2022/09/03 09:07:12;;;;;;;5.85;5.28;;;;;;;19.33;64.38;94794.28;4202131;28;20204;-61
2022/09/03 09:09:59;;;;;;;5.80;5.20;;;;;;;19.11;64.19;94805.19;4211439;28;20482;-60
2022/09/03 09:12:42;;;;;;;6.80;5.70;;;;;;;19.04;65.00;94807.06;4185126;28;20106;-60
2022/09/03 09:15:07;;;;;;;6.85;6.13;;;;;;;19.36;64.58;94800.00;4159713;28;20419;-59
2022/09/03 09:17:26;;;;;;;6.30;5.53;;;;;;;19.39;64.07;94799.56;4159323;28;20051;-61
2022/09/03 09:19:37;;;;;;;10.65;5.80;;;;;;;19.59;63.82;94806.63;4159792;28;20050;-61
2022/09/03 09:21:44;;;;;;;8.73;5.95;;;;;;;19.68;63.39;94804.56;4159809;28;20053;-62
2022/09/03 09:23:48;;;;;;;7.75;6.13;;;;;;;19.61;63.92;94804.59;4143918;28;20053;-60
2022/09/03 09:25:50;;;;;;;12.38;7.28;;;;;;;19.20;64.51;94805.78;4147074;28;20053;-60
2022/09/03 09:28:29;;;;;;;6.30;5.47;;;;;;;19.17;64.76;94804.38;4143798;28;20045;-60
2022/09/03 09:30:31;;;;;;;8.35;5.75;;;;;;;19.29;64.51;94806.38;4078769;29;20052;-59
2022/09/03 09:32:37;;;;;;;6.97;5.57;;;;;;;19.55;64.04;94806.28;4131393;28;20462;-62
2022/09/03 09:34:40;;;;;;;5.75;5.07;;;;;;;19.27;63.85;94811.88;4160126;28;20071;-61
2022/09/03 09:36:46;;;;;;;6.80;5.18;;;;;;;19.33;64.54;94804.91;4159222;28;20053;-62
2022/09/03 09:38:48;;;;;;;7.10;5.30;;;;;;;19.54;63.23;94814.44;4163517;28;20053;-60
2022/09/03 09:40:50;;;;;;;7.80;5.57;;;;;;;19.62;63.16;94808.88;4159251;28;20041;-59
2022/09/03 09:43:02;;;;;;;6.78;5.03;;;;;;;19.65;62.95;94811.91;4143873;28;20104;-58
2022/09/03 09:45:09;;;;;;;5.57;4.55;;;;;;;19.67;63.21;94810.91;4167283;28;20598;-58
2022/09/03 09:47:38;;;;;;;6.57;5.13;;;;;;;19.52;64.04;94805.88;4211383;28;20484;-60
2022/09/03 09:49:53;;;;;;;7.07;5.35;;;;;;;19.46;64.17;94806.72;4208150;28;20078;-59
2022/09/03 09:52:10;;;;;;;7.18;4.68;;;;;;;19.46;63.97;94810.19;4194998;28;20052;-62
2022/09/03 09:54:19;;;;;;;5.10;4.60;;;;;;;19.60;64.07;94806.44;4204339;28;20070;-60
2022/09/03 09:56:24;;;;;;;6.03;5.35;;;;;;;19.97;63.55;94809.31;4211936;28;20052;-61
2022/09/03 09:58:29;;;;;;;7.75;5.45;;;;;;;20.23;62.60;94804.84;4196702;28;20048;-66